Time;durP1;ratioP1;P1;durP2;ratioP2;P2;SDS_P1;SDS_P2;PMS_P1;PMS_P2;Temp;Humidity;BMP_temperature;BMP_pressure;BME280_temperature;BME280_humidity;BME280_pressure;Samples;Min_cycle;Max_cycle;Signal;HPM_P1;HPM_P2
2021/10/26 00:00:38;;;;;;;;;;;;;;;12.91;100.00;101676.78;5073293;29;20302;-72
2021/10/26 00:03:10;;;;;;;;;;;;;;;12.87;100.00;101680.63;5074751;29;19911;-72
2021/10/26 00:05:41;;;;;;;;;;;;;;;12.87;100.00;101681.44;5074748;29;19920;-72
2021/10/26 00:08:12;;;;;;;;;;;;;;;12.85;100.00;101688.66;5074854;29;19931;-72
2021/10/26 00:10:43;;;;;;;;;;;;;;;12.84;100.00;101694.88;5073765;29;20298;-72
2021/10/26 00:13:15;;;;;;;;;;;;;;;12.83;100.00;101701.06;5075359;29;20027;-72
2021/10/26 00:15:47;;;;;;;;;;;;;;;12.80;100.00;101693.41;5074880;29;19915;-72
2021/10/26 00:18:18;;;;;;;;;;;;;;;12.81;100.00;101707.44;5072621;29;19968;-72
2021/10/26 00:20:50;;;;;;;;;;;;;;;12.83;100.00;101702.88;5073429;29;20097;-72
2021/10/26 00:23:21;;;;;;;;;;;;;;;12.86;100.00;101711.34;5074439;29;19915;-72
2021/10/26 00:25:52;;;;;;;;;;;;;;;12.86;100.00;101706.09;5071942;29;19923;-72
2021/10/26 00:28:24;;;;;;;;;;;;;;;12.89;100.00;101707.66;5074475;29;19916;-72
2021/10/26 00:30:55;;;;;;;;;;;;;;;12.92;100.00;101702.13;5074344;29;20006;-72
2021/10/26 00:33:27;;;;;;;;;;;;;;;12.91;100.00;101708.34;5070897;29;19923;-72
2021/10/26 00:35:58;;;;;;;;;;;;;;;12.93;100.00;101713.50;5073408;29;20022;-72
2021/10/26 00:38:29;;;;;;;;;;;;;;;12.95;100.00;101714.19;5074589;29;20370;-72
2021/10/26 00:41:00;;;;;;;;;;;;;;;12.96;100.00;101708.00;5074267;29;19948;-72
2021/10/26 00:43:31;;;;;;;;;;;;;;;12.89;100.00;101713.72;5072695;29;19935;-72
2021/10/26 00:46:03;;;;;;;;;;;;;;;12.88;100.00;101706.81;5073186;29;20010;-72
2021/10/26 00:48:34;;;;;;;;;;;;;;;12.95;100.00;101711.56;5073725;29;19923;-72
2021/10/26 00:51:07;;;;;;;;;;;;;;;12.84;100.00;101707.16;5072469;29;20795;-72
2021/10/26 00:53:38;;;;;;;;;;;;;;;12.88;100.00;101708.63;5074184;29;19970;-72
2021/10/26 00:56:10;;;;;;;;;;;;;;;12.89;100.00;101719.00;5073870;29;19967;-71
2021/10/26 00:58:41;;;;;;;;;;;;;;;12.87;100.00;101715.63;5072112;29;20312;-72
2021/10/26 01:01:12;;;;;;;;;;;;;;;12.83;100.00;101716.00;5064548;29;20378;-72
2021/10/26 01:03:43;;;;;;;;;;;;;;;12.83;100.00;101723.91;5060679;29;19919;-72
2021/10/26 01:06:15;;;;;;;;;;;;;;;12.81;100.00;101718.78;5074199;29;19919;-72
2021/10/26 01:08:48;;;;;;;;;;;;;;;12.73;100.00;101726.44;5073401;29;20010;-72
2021/10/26 01:11:19;;;;;;;;;;;;;;;12.75;100.00;101721.06;5074345;29;19929;-72
2021/10/26 01:13:51;;;;;;;;;;;;;;;12.71;100.00;101724.88;5072681;29;19924;-72
2021/10/26 01:16:22;;;;;;;;;;;;;;;12.67;100.00;101724.31;5072358;29;20377;-72
2021/10/26 01:18:53;;;;;;;;;;;;;;;12.63;100.00;101728.97;5073495;29;19971;-72
2021/10/26 01:21:25;;;;;;;;;;;;;;;12.61;100.00;101730.91;5070874;29;20993;-72
2021/10/26 01:23:56;;;;;;;;;;;;;;;12.58;100.00;101732.94;5073279;29;19919;-72
2021/10/26 01:26:27;;;;;;;;;;;;;;;12.53;100.00;101727.19;5074178;29;20427;-72
2021/10/26 01:28:59;;;;;;;;;;;;;;;12.53;100.00;101727.19;5071511;29;20422;-72
2021/10/26 01:31:30;;;;;;;;;;;;;;;12.49;100.00;101723.97;5072048;29;19920;-72
2021/10/26 01:34:01;;;;;;;;;;;;;;;12.49;100.00;101725.75;5072934;29;19911;-72
2021/10/26 01:36:32;;;;;;;;;;;;;;;12.52;100.00;101728.16;5073770;29;19965;-72
2021/10/26 01:39:03;;;;;;;;;;;;;;;12.49;100.00;101726.59;5072136;29;19926;-72
2021/10/26 01:41:35;;;;;;;;;;;;;;;12.51;100.00;101726.47;5072810;29;20024;-72
2021/10/26 01:44:06;;;;;;;;;;;;;;;12.49;100.00;101723.97;5073351;29;19926;-72
2021/10/26 01:46:38;;;;;;;;;;;;;;;12.48;100.00;101729.34;5070584;29;20374;-72
2021/10/26 01:49:09;;;;;;;;;;;;;;;12.44;100.00;101728.75;5071519;29;20377;-71
2021/10/26 01:51:40;;;;;;;;;;;;;;;12.41;100.00;101729.81;5072192;29;19927;-71
2021/10/26 01:54:12;;;;;;;;;;;;;;;12.36;100.00;101736.41;5073483;29;19911;-71
2021/10/26 01:56:43;;;;;;;;;;;;;;;12.36;100.00;101731.97;5073487;29;20210;-71
2021/10/26 01:59:15;;;;;;;;;;;;;;;12.34;100.00;101728.63;5071131;29;19915;-71
2021/10/26 02:01:46;;;;;;;;;;;;;;;12.29;100.00;101736.03;5069954;29;19922;-71
2021/10/26 02:04:17;;;;;;;;;;;;;;;12.33;100.00;101741.88;5072886;29;19927;-71
2021/10/26 02:06:48;;;;;;;;;;;;;;;12.31;100.00;101734.13;5071478;29;19912;-71
2021/10/26 02:09:20;;;;;;;;;;;;;;;12.33;100.00;101745.34;5073674;29;19941;-71
2021/10/26 02:11:51;;;;;;;;;;;;;;;12.32;100.00;101742.84;5072428;29;19923;-70
2021/10/26 02:14:22;;;;;;;;;;;;;;;12.30;100.00;101735.06;5071417;29;19978;-71
2021/10/26 02:16:54;;;;;;;;;;;;;;;12.33;100.00;101736.63;5072595;29;20291;-71
2021/10/26 02:19:28;;;;;;;;;;;;;;;12.34;100.00;101731.25;5068573;29;19915;-71
2021/10/26 02:21:59;;;;;;;;;;;;;;;12.38;100.00;101732.69;5072322;29;19946;-70
2021/10/26 02:24:30;;;;;;;;;;;;;;;12.38;100.00;101732.69;5070767;29;19915;-71
2021/10/26 02:27:01;;;;;;;;;;;;;;;12.40;100.00;101722.06;5073112;29;20466;-71
2021/10/26 02:29:32;;;;;;;;;;;;;;;12.38;100.00;101730.03;5071066;29;19920;-71
2021/10/26 02:32:05;;;;;;;;;;;;;;;12.36;100.00;101725.88;5072268;29;19997;-71
2021/10/26 02:34:36;;;;;;;;;;;;;;;12.36;100.00;101733.78;5071804;29;20309;-71
2021/10/26 02:37:07;;;;;;;;;;;;;;;12.33;100.00;101740.09;5072613;29;19920;-71
2021/10/26 02:39:39;;;;;;;;;;;;;;;12.35;100.00;101735.56;5070190;29;19926;-70
2021/10/26 02:42:10;;;;;;;;;;;;;;;12.35;100.00;101738.19;5073239;29;19916;-71
2021/10/26 02:44:42;;;;;;;;;;;;;;;12.32;100.00;101745.47;5072749;29;19954;-71
2021/10/26 02:47:13;;;;;;;;;;;;;;;12.29;100.00;101745.72;5071187;29;19975;-70
2021/10/26 02:49:44;;;;;;;;;;;;;;;12.30;100.00;101750.00;5070149;29;20417;-71
2021/10/26 02:52:15;;;;;;;;;;;;;;;12.29;100.00;101750.97;5072433;29;19941;-71
2021/10/26 02:54:46;;;;;;;;;;;;;;;12.28;100.00;101746.69;5071010;29;19922;-70
2021/10/26 02:57:17;;;;;;;;;;;;;;;12.30;100.00;101753.47;5072848;29;19919;-71
2021/10/26 02:59:49;;;;;;;;;;;;;;;12.30;100.00;101752.63;5076190;29;19923;-71
2021/10/26 03:02:20;;;;;;;;;;;;;;;12.34;100.00;101754.06;5076727;29;19967;-71
2021/10/26 03:04:51;;;;;;;;;;;;;;;12.32;100.00;101756.00;5074746;29;19924;-71
2021/10/26 03:07:22;;;;;;;;;;;;;;;12.39;100.00;101758.03;5075391;29;19920;-71
2021/10/26 03:09:53;;;;;;;;;;;;;;;12.44;100.00;101762.91;5076351;29;20067;-71
2021/10/26 03:12:24;;;;;;;;;;;;;;;12.43;100.00;101763.88;5075703;29;20275;-71
2021/10/26 03:14:56;;;;;;;;;;;;;;;12.46;100.00;101754.91;5076054;29;19922;-71
2021/10/26 03:17:27;;;;;;;;;;;;;;;12.48;100.00;101761.72;5076618;29;19972;-71
2021/10/26 03:20:00;;;;;;;;;;;;;;;12.49;100.00;101759.91;5074751;29;19930;-71
2021/10/26 03:22:31;;;;;;;;;;;;;;;12.46;100.00;101774.13;5074495;29;20386;-70
2021/10/26 03:25:04;;;;;;;;;;;;;;;12.49;100.00;101762.56;5076129;29;19939;-71
2021/10/26 03:27:35;;;;;;;;;;;;;;;12.50;100.00;101758.94;5075692;29;20866;-70
2021/10/26 03:30:08;;;;;;;;;;;;;;;12.54;100.00;101770.91;5075365;29;19951;-71
2021/10/26 03:32:40;;;;;;;;;;;;;;;12.50;100.00;101765.06;5075432;29;19956;-70
2021/10/26 03:35:11;;;;;;;;;;;;;;;12.49;100.00;101759.91;5075900;29;19911;-71
2021/10/26 03:37:42;;;;;;;;;;;;;;;12.49;100.00;101778.31;5074074;29;20584;-70
2021/10/26 03:40:14;;;;;;;;;;;;;;;12.51;100.00;101763.28;5074682;29;19915;-71
2021/10/26 03:42:45;;;;;;;;;;;;;;;12.52;100.00;101775.47;5076186;29;19919;-71
2021/10/26 03:45:16;;;;;;;;;;;;;;;12.54;100.00;101771.75;5074544;29;19930;-71
2021/10/26 03:47:47;;;;;;;;;;;;;;;12.54;100.00;101771.75;5075760;29;20562;-71
2021/10/26 03:50:18;;;;;;;;;;;;;;;12.52;100.00;101780.72;5076046;29;19969;-71
2021/10/26 03:52:50;;;;;;;;;;;;;;;12.49;100.00;101784.41;5073959;29;20664;-70
2021/10/26 03:55:21;;;;;;;;;;;;;;;12.50;100.00;101785.25;5074047;29;19920;-71
2021/10/26 03:57:52;;;;;;;;;;;;;;;12.51;100.00;101781.69;5074617;29;19912;-71
2021/10/26 04:00:24;;;;;;;;;;;;;;;12.52;100.00;101778.09;5073238;29;20330;-70
2021/10/26 04:02:55;;;;;;;;;;;;;;;12.52;100.00;101780.72;5074479;29;19923;-71
2021/10/26 04:05:56;;;;;;;;;;;;;;;12.51;100.00;101771.16;5071772;29;20168;-71
2021/10/26 04:10:59;;;;;;;;;;;;;;;12.51;100.00;101771.16;5073533;29;20323;-71
2021/10/26 04:13:30;;;;;;;;;;;;;;;12.49;100.00;101778.31;5073605;29;19919;-70
2021/10/26 04:16:02;;;;;;;;;;;;;;;12.47;100.00;101780.25;5074767;29;19972;-70
2021/10/26 04:18:33;;;;;;;;;;;;;;;12.48;100.00;101782.75;5075301;29;19926;-71
2021/10/26 04:21:04;;;;;;;;;;;;;;;12.47;100.00;101778.44;5075140;29;19915;-71
2021/10/26 04:23:36;;;;;;;;;;;;;;;12.45;100.00;101777.72;5074031;29;19946;-71
2021/10/26 04:26:07;;;;;;;;;;;;;;;12.41;100.00;101785.00;5076094;29;20132;-71
2021/10/26 04:28:38;;;;;;;;;;;;;;;12.44;100.00;101788.38;5073928;29;19923;-71
2021/10/26 04:31:09;;;;;;;;;;;;;;;12.41;100.00;101797.31;5072224;29;19919;-70
2021/10/26 04:33:41;;;;;;;;;;;;;;;12.38;100.00;101793.13;5074398;29;19918;-71
2021/10/26 04:36:12;;;;;;;;;;;;;;;12.38;100.00;101795.75;5075072;29;19919;-70
2021/10/26 04:38:43;;;;;;;;;;;;;;;12.31;100.00;101797.19;5074839;29;19919;-70
2021/10/26 04:41:15;;;;;;;;;;;;;;;12.32;100.00;101805.91;5073659;29;19935;-71
2021/10/26 04:43:46;;;;;;;;;;;;;;;12.29;100.00;101804.34;5073768;29;19919;-71
2021/10/26 04:46:17;;;;;;;;;;;;;;;12.22;100.00;101812.81;5074595;29;20380;-71
2021/10/26 04:48:48;;;;;;;;;;;;;;;12.17;100.00;101805.28;5074372;29;19923;-71
2021/10/26 04:51:20;;;;;;;;;;;;;;;12.26;100.00;101817.72;5072951;29;20405;-71
2021/10/26 04:53:51;;;;;;;;;;;;;;;12.26;100.00;101807.22;5074633;29;20014;-70
2021/10/26 04:56:22;;;;;;;;;;;;;;;12.22;100.00;101807.56;5074767;29;20290;-71
2021/10/26 04:58:53;;;;;;;;;;;;;;;12.28;100.00;101807.09;5072958;29;19924;-71
2021/10/26 05:01:24;;;;;;;;;;;;;;;12.25;100.00;101807.34;5073238;29;19920;-71
2021/10/26 05:03:55;;;;;;;;;;;;;;;12.27;100.00;101792.28;5073970;29;19919;-71
2021/10/26 05:06:26;;;;;;;;;;;;;;;12.28;100.00;101801.84;5074378;29;19920;-71
2021/10/26 05:08:58;;;;;;;;;;;;;;;12.20;100.00;101797.19;5072991;29;20286;-71
2021/10/26 05:11:29;;;;;;;;;;;;;;;12.21;100.00;101800.66;5074207;29;19938;-71
2021/10/26 05:14:00;;;;;;;;;;;;;;;12.26;100.00;101798.50;5074285;29;19967;-70
2021/10/26 05:16:32;;;;;;;;;;;;;;;12.28;100.00;101807.94;5071703;29;19986;-71
2021/10/26 05:19:05;;;;;;;;;;;;;;;12.29;100.00;101812.22;5073772;29;19916;-71
2021/10/26 05:21:36;;;;;;;;;;;;;;;12.29;100.00;101816.66;5073834;29;19912;-71
2021/10/26 05:24:08;;;;;;;;;;;;;;;12.27;100.00;101821.19;5074058;29;19926;-71
2021/10/26 05:26:39;;;;;;;;;;;;;;;12.23;100.00;101817.94;5072574;29;19924;-71
2021/10/26 05:29:11;;;;;;;;;;;;;;;12.26;100.00;101820.34;5074129;29;19919;-71
2021/10/26 05:31:42;;;;;;;;;;;;;;;12.21;100.00;101812.00;5073493;29;19915;-71
2021/10/26 05:34:14;;;;;;;;;;;;;;;12.20;100.00;101812.09;5072173;29;19922;-71
2021/10/26 05:36:45;;;;;;;;;;;;;;;12.20;100.00;101825.22;5072444;29;19980;-70
2021/10/26 05:39:17;;;;;;;;;;;;;;;12.20;100.00;101831.34;5068118;29;19970;-70
2021/10/26 05:41:48;;;;;;;;;;;;;;;12.21;100.00;101832.19;5072258;29;19927;-70
2021/10/26 05:44:20;;;;;;;;;;;;;;;12.22;100.00;101831.22;5071516;29;19940;-72
2021/10/26 05:46:51;;;;;;;;;;;;;;;12.18;100.00;101831.44;5073761;29;19912;-72
2021/10/26 05:49:22;;;;;;;;;;;;;;;11.99;100.00;101839.03;5073213;29;19922;-71
2021/10/26 05:51:53;;;;;;;;;;;;;;;12.00;100.00;101837.25;5067727;29;19923;-72
2021/10/26 05:54:25;;;;;;;;;;;;;;;11.99;100.00;101844.28;5067949;29;20285;-71
2021/10/26 05:56:56;;;;;;;;;;;;;;;11.99;100.00;101851.34;5071308;29;19939;-71
2021/10/26 05:59:27;;;;;;;;;;;;;;;12.01;100.00;101852.03;5070565;29;19941;-71
2021/10/26 06:01:58;;;;;;;;;;;;;;;11.96;100.00;101854.19;5067581;29;19927;-70
2021/10/26 06:04:29;;;;;;;;;;;;;;;11.98;100.00;101861.00;5066413;29;20057;-70
2021/10/26 06:07:01;;;;;;;;;;;;;;;11.95;100.00;101860.41;5069967;29;19926;-71
2021/10/26 06:09:34;;;;;;;;;;;;;;;11.91;100.00;101867.66;5068561;29;19920;-72
2021/10/26 06:12:09;;;;;;;;;;;;;;;11.86;100.00;101860.13;5069842;29;20393;-73
2021/10/26 06:14:42;;;;;;;;;;;;;;;11.86;100.00;101877.69;5072910;29;20416;-72
2021/10/26 06:17:14;;;;;;;;;;;;;;;11.87;100.00;101871.47;5064180;29;19927;-72
2021/10/26 06:19:45;;;;;;;;;;;;;;;11.84;100.00;101877.78;5071969;29;19915;-71
2021/10/26 06:22:16;;;;;;;;;;;;;;;11.76;100.00;101876.63;5068115;29;19983;-71
2021/10/26 06:24:48;;;;;;;;;;;;;;;11.86;100.00;101877.69;5055973;29;19924;-71
2021/10/26 06:27:19;;;;;;;;;;;;;;;11.89;100.00;101880.91;5062021;29;19920;-70
2021/10/26 06:29:50;;;;;;;;;;;;;;;11.89;100.00;101885.31;5064297;29;19998;-71
2021/10/26 06:32:22;;;;;;;;;;;;;;;11.91;100.00;101894.75;5068815;29;19912;-71
2021/10/26 06:34:53;;;;;;;;;;;;;;;11.91;100.00;101893.91;5070791;29;19930;-70
2021/10/26 06:37:24;;;;;;;;;;;;;;;11.87;100.00;101895.94;5068891;29;19934;-72
2021/10/26 06:39:57;;;;;;;;;;;;;;;11.91;100.00;101889.50;5072264;29;19920;-72
2021/10/26 06:42:28;;;;;;;;;;;;;;;11.89;100.00;101891.41;5075498;29;20002;-71
2021/10/26 06:44:59;;;;;;;;;;;;;;;11.91;100.00;101883.41;5069446;29;19938;-71
2021/10/26 06:47:31;;;;;;;;;;;;;;;11.92;100.00;101890.34;5064576;29;20288;-71
2021/10/26 06:50:03;;;;;;;;;;;;;;;11.93;100.00;101886.75;5070742;29;20330;-72
2021/10/26 06:52:35;;;;;;;;;;;;;;;11.92;100.00;101896.41;5074031;29;19915;-71
2021/10/26 06:55:06;;;;;;;;;;;;;;;11.93;100.00;101895.50;5073324;29;19920;-71
2021/10/26 06:57:38;;;;;;;;;;;;;;;11.96;100.00;101896.19;5069120;29;19962;-72
2021/10/26 07:00:09;;;;;;;;;;;;;;;11.97;100.00;101892.63;5066690;29;19919;-72
2021/10/26 07:02:48;;;;;;;;;;;;;;;11.93;100.00;101898.13;5069267;29;19916;-71
2021/10/26 07:05:21;;;;;;;;;;;;;;;11.93;100.00;101892.00;5069781;29;19930;-72
2021/10/26 07:07:52;;;;;;;;;;;;;;;11.86;100.00;101889.00;5064169;29;19920;-71
2021/10/26 07:10:24;;;;;;;;;;;;;;;11.88;100.00;101900.22;5063797;29;19930;-71
2021/10/26 07:12:55;;;;;;;;;;;;;;;11.87;100.00;101900.34;5070772;29;19920;-71
2021/10/26 07:15:29;;;;;;;;;;;;;;;11.87;100.00;101903.81;5073025;29;19920;-72
2021/10/26 07:18:00;;;;;;;;;;;;;;;11.85;100.00;101905.69;5070438;29;19930;-71
2021/10/26 07:20:32;;;;;;;;;;;;;;;11.84;100.00;101906.66;5072335;29;20269;-71
2021/10/26 07:23:03;;;;;;;;;;;;;;;11.89;100.00;101922.94;5067632;29;19919;-71
2021/10/26 07:25:34;;;;;;;;;;;;;;;11.92;100.00;101930.56;5068282;29;21252;-71
2021/10/26 07:28:05;;;;;;;;;;;;;;;11.78;100.00;101938.59;5070853;29;19912;-70
2021/10/26 07:30:39;;;;;;;;;;;;;;;11.85;100.00;101936.38;5072982;29;19931;-71
2021/10/26 07:33:21;;;;;;;;;;;;;;;11.86;100.00;101930.19;5073540;29;19923;-71
2021/10/26 07:35:55;;;;;;;;;;;;;;;11.90;100.00;101931.66;5072549;29;19961;-71
2021/10/26 07:38:31;;;;;;;;;;;;;;;11.94;100.00;101948.84;5072996;29;19927;-71
2021/10/26 07:41:03;;;;;;;;;;;;;;;11.91;100.00;101944.66;5073085;29;21131;-71
2021/10/26 07:43:35;;;;;;;;;;;;;;;11.97;100.00;101946.00;5072226;29;19919;-72
2021/10/26 07:46:06;;;;;;;;;;;;;;;11.96;100.00;101944.31;5072165;29;19927;-71
2021/10/26 07:48:37;;;;;;;;;;;;;;;11.99;100.00;101944.09;5069629;29;19923;-71
2021/10/26 07:51:08;;;;;;;;;;;;;;;11.98;100.00;101936.34;5070164;29;19971;-71
2021/10/26 07:53:40;;;;;;;;;;;;;;;12.03;100.00;101937.66;5072192;29;19920;-72
2021/10/26 07:56:11;;;;;;;;;;;;;;;12.11;100.00;101944.97;5071981;29;19931;-72
2021/10/26 07:58:42;;;;;;;;;;;;;;;12.16;100.00;101942.88;5066115;29;19928;-72
2021/10/26 08:01:13;;;;;;;;;;;;;;;12.21;100.00;101948.59;5070293;29;19944;-72
2021/10/26 08:03:44;;;;;;;;;;;;;;;12.20;100.00;101949.56;5071859;29;19925;-72
2021/10/26 08:06:16;;;;;;;;;;;;;;;12.27;100.00;101948.13;5072399;29;19920;-72
2021/10/26 08:08:47;;;;;;;;;;;;;;;12.36;100.00;101951.88;5065920;29;20325;-72
2021/10/26 08:11:19;;;;;;;;;;;;;;;12.46;100.00;101947.59;5067495;29;19927;-72
2021/10/26 08:13:50;;;;;;;;;;;;;;;12.55;100.00;101948.72;5071481;29;20496;-72
2021/10/26 08:16:21;;;;;;;;;;;;;;;12.59;100.00;101955.41;5071233;29;19919;-72
2021/10/26 08:18:53;;;;;;;;;;;;;;;12.66;100.00;101954.00;5071746;29;19938;-72
2021/10/26 08:21:24;;;;;;;;;;;;;;;12.74;100.00;101951.63;5062883;29;19950;-72
2021/10/26 08:23:56;;;;;;;;;;;;;;;12.78;100.00;101946.97;5069976;29;19915;-72
2021/10/26 08:26:38;;;;;;;;;;;;;;;12.79;100.00;101954.72;5073380;29;19926;-72
2021/10/26 08:32:12;;;;;;;;;;;;;;;12.62;100.00;101945.50;5071530;29;19922;-71
2021/10/26 08:37:15;;;;;;;;;;;;;;;12.60;100.00;101952.66;5072601;29;19944;-72
2021/10/26 08:39:46;;;;;;;;;;;;;;;12.60;100.00;101957.06;5069834;29;19916;-72
2021/10/26 08:42:21;;;;;;;;;;;;;;;12.73;100.00;101952.59;5070840;29;20460;-72
2021/10/26 08:44:52;;;;;;;;;;;;;;;12.78;100.00;101960.94;5068276;29;19928;-72
2021/10/26 08:47:24;;;;;;;;;;;;;;;12.74;100.00;101966.56;5068646;29;19923;-72
2021/10/26 08:49:55;;;;;;;;;;;;;;;12.78;100.00;101963.56;5070718;29;20972;-72
2021/10/26 08:52:27;;;;;;;;;;;;;;;12.77;100.00;101961.91;5072323;29;19919;-72
2021/10/26 08:54:59;;;;;;;;;;;;;;;12.78;100.00;101965.38;5070126;29;19974;-72
2021/10/26 08:57:30;;;;;;;;;;;;;;;12.74;100.00;101962.13;5061131;29;20022;-72
2021/10/26 09:00:07;;;;;;;;;;;;;;;12.78;100.00;101971.47;5066257;29;20505;-72
2021/10/26 09:02:38;;;;;;;;;;;;;;;12.81;100.00;101968.59;5071446;29;20018;-72
2021/10/26 09:05:21;;;;;;;;;;;;;;;12.82;100.00;101953.66;5070165;29;19919;-72
2021/10/26 09:08:05;;;;;;;;;;;;;;;12.87;100.00;101956.75;5073207;29;19927;-71
2021/10/26 09:10:37;;;;;;;;;;;;;;;12.91;100.00;101955.56;5070695;29;20087;-72
2021/10/26 09:19:12;;;;;;;;;;;;;;;13.09;100.00;101943.63;5068317;29;20233;-72
2021/10/26 09:21:44;;;;;;;;;;;;;;;13.21;100.00;101941.00;5069684;29;20014;-72
2021/10/26 09:24:16;;;;;;;;;;;;;;;13.31;100.00;101948.09;5067528;29;19920;-72
2021/10/26 09:26:50;;;;;;;;;;;;;;;13.33;100.00;101943.56;5068866;29;20271;-72
2021/10/26 09:29:22;;;;;;;;;;;;;;;13.43;100.00;101954.16;5069916;29;19923;-72
2021/10/26 09:32:04;;;;;;;;;;;;;;;13.59;100.00;101961.69;5067663;29;19968;-73
2021/10/26 09:34:40;;;;;;;;;;;;;;;13.71;100.00;101955.44;5066235;29;19999;-72
2021/10/26 09:37:11;;;;;;;;;;;;;;;13.77;100.00;101956.75;5070608;29;19928;-72
2021/10/26 09:39:53;;;;;;;;;;;;;;;13.82;100.00;101958.03;5069868;29;20424;-72
2021/10/26 09:42:25;;;;;;;;;;;;;;;13.71;100.00;101950.16;5065905;29;19926;-72
2021/10/26 09:45:02;;;;;;;;;;;;;;;13.74;100.00;101965.72;5067273;29;20275;-72
2021/10/26 09:47:36;;;;;;;;;;;;;;;13.77;100.00;101962.00;5068063;29;19927;-72
2021/10/26 09:50:09;;;;;;;;;;;;;;;13.82;100.00;101958.03;5068945;29;20378;-72
2021/10/26 09:52:44;;;;;;;;;;;;;;;13.85;100.00;101956.97;5067193;29;20011;-72
2021/10/26 09:55:28;;;;;;;;;;;;;;;13.85;100.00;101955.16;5071961;29;19912;-72
2021/10/26 09:58:00;;;;;;;;;;;;;;;13.90;100.00;101952.16;5070331;29;20194;-72
2021/10/26 10:00:39;;;;;;;;;;;;;;;13.90;100.00;101957.41;5052669;29;19923;-72
2021/10/26 10:03:17;;;;;;;;;;;;;;;13.97;100.00;101966.50;5071671;29;20262;-72
2021/10/26 10:06:01;;;;;;;;;;;;;;;14.05;100.00;101968.50;5067370;29;19920;-72
2021/10/26 10:08:34;;;;;;;;;;;;;;;14.11;100.00;101960.94;5070859;29;19954;-72
2021/10/26 10:11:05;;;;;;;;;;;;;;;14.20;100.00;101966.41;5074889;29;20287;-72
2021/10/26 10:13:52;;;;;;;;;;;;;;;14.26;100.00;101963.28;5075695;29;19919;-72
2021/10/26 10:16:25;;;;;;;;;;;;;;;14.32;100.00;101966.25;5075364;29;19931;-72
2021/10/26 10:18:56;;;;;;;;;;;;;;;14.34;100.00;101966.13;5074090;29;19916;-72
2021/10/26 10:21:30;;;;;;;;;;;;;;;14.35;100.00;101965.97;5075452;29;20377;-72
2021/10/26 10:24:05;;;;;;;;;;;;;;;14.39;100.00;101965.72;5071954;29;20381;-72
2021/10/26 10:26:37;;;;;;;;;;;;;;;14.45;100.00;101958.16;5068480;29;20290;-72
2021/10/26 10:29:09;;;;;;;;;;;;;;;14.47;100.00;101964.16;5070268;29;20333;-72
2021/10/26 10:31:40;;;;;;;;;;;;;;;14.47;100.00;101968.56;5070342;29;19922;-72
2021/10/26 10:34:13;;;;;;;;;;;;;;;14.56;100.00;101965.19;5072766;29;20447;-71
2021/10/26 10:36:46;;;;;;;;;;;;;;;14.56;100.00;101950.22;5075583;29;19924;-72
2021/10/26 10:39:22;;;;;;;;;;;;;;;14.69;100.00;101954.44;5073074;29;20392;-72
2021/10/26 10:42:15;;;;;;;;;;;;;;;14.79;100.00;101945.63;5071098;29;19924;-72
2021/10/26 10:44:46;;;;;;;;;;;;;;;14.92;100.00;101940.13;5070650;29;20058;-72
2021/10/26 10:47:30;;;;;;;;;;;;;;;15.06;100.00;101952.16;5070752;29;19942;-72
2021/10/26 10:50:02;;;;;;;;;;;;;;;15.16;100.00;101937.19;5072498;29;20007;-72
2021/10/26 10:52:34;;;;;;;;;;;;;;;15.18;100.00;101940.53;5073871;29;19919;-72
2021/10/26 10:55:22;;;;;;;;;;;;;;;15.33;100.00;101939.19;5074565;29;19916;-72
2021/10/26 10:57:54;;;;;;;;;;;;;;;15.46;100.00;101938.97;5074704;29;19915;-72
2021/10/26 11:00:30;;;;;;;;;;;;;;;15.47;100.00;101929.22;5068719;29;19920;-72
2021/10/26 11:03:01;;;;;;;;;;;;;;;15.46;100.00;101930.19;5070932;29;19911;-72
2021/10/26 11:05:35;;;;;;;;;;;;;;;15.47;100.00;101924.78;5071848;29;19930;-72
2021/10/26 11:08:07;;;;;;;;;;;;;;;15.45;100.00;101931.97;5073507;29;19923;-72
2021/10/26 11:10:50;;;;;;;;;;;;;;;15.49;100.00;101930.78;5072600;29;20408;-72
2021/10/26 11:13:22;;;;;;;;;;;;;;;15.49;100.00;101928.13;5073278;29;19947;-72
2021/10/26 11:15:54;;;;;;;;;;;;;;;15.49;100.00;101927.25;5073902;29;19930;-72
2021/10/26 11:18:35;;;;;;;;;;;;;;;15.58;100.00;101923.81;5073689;29;20007;-72
2021/10/26 11:21:08;;;;;;;;;;;;;;;15.56;100.00;101923.94;5073492;29;19916;-72
2021/10/26 11:23:43;;;;;;;;;;;;;;;15.50;100.00;101923.69;5074854;29;19923;-72
2021/10/26 11:26:17;;;;;;;;;;;;;;;15.57;100.00;101922.16;5072576;29;20442;-72
2021/10/26 11:28:50;;;;;;;;;;;;;;;15.60;100.00;101921.88;5074512;29;19995;-72
2021/10/26 11:31:25;;;;;;;;;;;;;;;15.67;100.00;101930.13;5074187;29;20479;-72
2021/10/26 11:33:57;;;;;;;;;;;;;;;15.90;100.00;101928.88;5074088;29;19916;-72
2021/10/26 11:36:33;;;;;;;;;;;;;;;15.97;100.00;101929.19;5074068;29;19927;-72
2021/10/26 11:39:07;;;;;;;;;;;;;;;16.08;100.00;101939.63;5072953;29;19919;-72
2021/10/26 11:41:39;;;;;;;;;;;;;;;16.05;100.00;101921.38;5072190;29;19919;-72
2021/10/26 11:44:12;;;;;;;;;;;;;;;16.06;100.00;101920.41;5075142;29;20453;-72
2021/10/26 11:46:45;;;;;;;;;;;;;;;16.07;100.00;101921.25;5073571;29;19931;-72
2021/10/26 11:49:21;;;;;;;;;;;;;;;16.09;100.00;101914.84;5072870;29;19919;-72
2021/10/26 11:51:55;;;;;;;;;;;;;;;16.20;100.00;101913.84;5071627;29;19916;-73
2021/10/26 11:54:36;;;;;;;;;;;;;;;16.22;100.00;101914.56;5070369;29;19980;-73
2021/10/26 11:57:12;;;;;;;;;;;;;;;16.26;100.00;101910.66;5071419;29;20442;-73
2021/10/26 11:59:44;;;;;;;;;;;;;;;16.30;100.00;101915.53;5071066;29;20396;-73
2021/10/26 12:02:17;;;;;;;;;;;;;;;16.36;100.00;101916.75;5065817;29;19926;-72
2021/10/26 12:04:50;;;;;;;;;;;;;;;16.28;100.00;101906.88;5073393;29;20033;-72
2021/10/26 12:07:23;;;;;;;;;;;;;;;16.37;100.00;101917.63;5066732;29;19928;-73
2021/10/26 12:09:56;;;;;;;;;;;;;;;16.37;100.00;101907.88;5070505;29;19927;-72
2021/10/26 12:12:31;;;;;;;;;;;;;;;16.45;100.00;101905.34;5072618;29;19923;-72
2021/10/26 12:15:04;;;;;;;;;;;;;;;16.34;100.00;101907.31;5070924;29;19976;-72
2021/10/26 12:17:42;;;;;;;;;;;;;;;16.25;100.00;101909.84;5070352;29;19920;-72
2021/10/26 12:20:21;;;;;;;;;;;;;;;16.28;100.00;101904.25;5073803;29;19971;-73
2021/10/26 12:22:54;;;;;;;;;;;;;;;16.22;100.00;101910.09;5071403;29;19923;-73
2021/10/26 12:25:30;;;;;;;;;;;;;;;16.24;100.00;101910.78;5071364;29;20342;-72
2021/10/26 12:28:03;;;;;;;;;;;;;;;16.43;100.00;101902.00;5070704;29;19965;-73
2021/10/26 12:30:36;;;;;;;;;;;;;;;16.48;100.00;101898.94;5072178;29;19920;-72
2021/10/26 12:33:15;;;;;;;;;;;;;;;16.50;100.00;101900.44;5069266;29;19915;-72
2021/10/26 12:35:57;;;;;;;;;;;;;;;16.47;100.00;101907.81;5070996;29;19912;-73
2021/10/26 12:38:35;;;;;;;;;;;;;;;16.69;100.00;101899.56;5071661;29;19946;-73
2021/10/26 12:41:14;;;;;;;;;;;;;;;16.61;100.00;101906.56;5072949;29;19955;-72
2021/10/26 12:43:48;;;;;;;;;;;;;;;16.44;100.00;101900.16;5070166;29;20394;-73
2021/10/26 12:46:23;;;;;;;;;;;;;;;16.29;100.00;101905.94;5072854;29;19924;-73
2021/10/26 12:49:05;;;;;;;;;;;;;;;16.35;100.00;101908.97;5072725;29;20034;-73
2021/10/26 12:51:37;;;;;;;;;;;;;;;16.16;100.00;101901.91;5066395;29;19919;-73
2021/10/26 12:54:17;;;;;;;;;;;;;;;16.26;100.00;101913.31;5070275;29;19992;-73
2021/10/26 12:56:51;;;;;;;;;;;;;;;16.26;100.00;101919.44;5068528;29;20358;-72
2021/10/26 12:59:28;;;;;;;;;;;;;;;16.30;100.00;101910.22;5055636;29;19975;-73
2021/10/26 13:02:00;;;;;;;;;;;;;;;16.42;100.00;101916.19;5070231;29;20434;-72
2021/10/26 13:04:33;;;;;;;;;;;;;;;16.47;100.00;101910.47;5071091;29;20266;-72
2021/10/26 13:07:09;;;;;;;;;;;;;;;16.51;100.00;101911.84;5068362;29;19915;-72
2021/10/26 13:09:48;;;;;;;;;;;;;;;16.56;100.00;101914.09;5067081;29;19920;-72